Aérodrome :







RETROUVEZ-NOUS SUR...

 
LOGIN :

S'inscrire | Disclaimer

   EN    FR    IT 

 









Légende :    VFR   VFR Marginal   IFR   IFR Intensif   IFR Très Intensif
Visi : 
Plafond : 
>= 8 km
>= 3000ft
5 à 8 km
1000 à 3000 ft
1500m à 5 km
500 à 1000 ft
800 à 1500m
200 à 500 ft
< 800m
< 200 ft
Symboles :   Orages  Brouillard  Fortes neiges  Fortes précipitations  Vent > 20 kt






- Altitude de l'aérodrome : 70 ft


KIWI - Wiscasset

DERNIER METAR :
  • 020733Z AUTO VRB06KT 10SM BKN015 OVC055 03/01 A2960 RMK AO2 T00280011

METARs EXPIRÉS :
  • 020653Z AUTO 10SM SCT013 BKN065 OVC085 03/01 A2962 RMK AO2 SLP029 T00280011
  • 020608Z AUTO VRB06KT 10SM BKN014 BKN044 OVC090 03/01 A2965 RMK AO2 T00280011
  • 020553Z AUTO VRB05KT 10SM BKN015 BKN041 OVC100 03/01 A2965 RMK AO2 RAE0457 SLP042 P0000 60008 T00280011 10044 20028 58028
  • 020535Z AUTO VRB04KT 10SM BKN016 BKN040 OVC047 03/01 A2966 RMK AO2 RAE0457 P0000 T00280011
  • 020509Z AUTO VRB04KT 10SM SCT013 BKN042 OVC075 03/02 A2967 RMK AO2 RAE0457 P0000 T00330017
  • 020453Z AUTO VRB04KT 10SM -RA BKN013 OVC034 03/02 A2968 RMK AO2 SLP052 P0002 T00330017 400671017

TAF N/A



MET'MAP, la Météo Aéronautique d'un coup d'oeil ! - Copyright ORBIFLY Décembre 2007 - Disclaimer

ORBIFLY MET'MAP TEAM :

Programmation & Développement : Alexandra Zaïnal
Sur une idée originale de : Baudouin d'Aumeries
Assistance à la programmation : Marc-Olivier Méhu
Soutien technique & logistique : Manuel Goepfert

Contact : metmap@orbifly.com




SOURCES & CREDITS :

   NOAA